Mexia, TX (76667)

2:17 AM CST on February 13, 2016 (GMT -0600)
Amateur Radio Station KC5PID | | Change Station
CLOSE
Current Station
Personal Weather Station
Location: Mexia, TX
Elevation: 502 ft
Nearby Weather Stations

Elev 502 ft 31.67 °N, 96.47 °W | Updated 2 seconds ago

Clear
Clear
49.1 °F
Feels Like 46 °F
N
6.9
Wind Variable Wind from NNW
Gusts 9.0 mph

Today
High -- | Low -- °F
--% Chance of Precip.
Yesterday
High -- | Low -- °F
Precip. -- in
Pressure 30.32 in
Visibility 10.0 miles
Clouds Clear
Windchill 46 °F
Dew Point 41 °F
Humidity 73%
Rainfall 0.00 in
Snow Depth Not available.
7:09 AM 6:10 PM
Waxing Crescent, 28% visible
METAR KLXY 130755Z AUTO 01006KT 10SM CLR 10/03 A3032 RMK AO2 T01010034
Pressure 30.32 in
Visibility 10.0 miles
Clouds Clear
Windchill 46 °F
Dew Point 41 °F
Humidity 73%
Rainfall 0.00 in
Snow Depth Not available.
7:09 AM 6:10 PM
Waxing Crescent, 28% visible
METAR KLXY 130755Z AUTO 01006KT 10SM CLR 10/03 A3032 RMK AO2 T01010034

10-Day Weather Forecast

Almanac

Astronomy

Feb. 13, 2016 Rise Set
Actual Time
Civil Twilight
Nautical Twilight
Astronomical Twilight
Moon
Length of Visible Light
Length of Day
Tomorrow will be .
, % of the Moon is Illuminated

Today's Extremes

State Highs State Lows

Community

WunderPhotos

Upload Photos

1,892,536 photos uploaded!

WunderBlog® & News

Nearby

Air Quality

  Air Quality AQ Index Pollutant
Not available.

Snow Depth

Station Depth Elevation

Earthquake Activity

City Distance Mag. Time & Date
Minimum magnitude displayed is 2.5.

Coastal Water Temperatures

Place Temperature

Stations

Nearby Weather Stations

Station Location Temp. Windchill Dew Point Humidity Wind Precip. Elev Updated Type
                   

Watches & Warnings

There are currently no watches in effect.